createdAt,value
2023-09-23T00:00:58.857Z,54.42
2023-09-23T00:03:27.373Z,54.62
2023-09-23T00:05:54.612Z,54.58
2023-09-23T00:08:21.707Z,54.77
2023-09-23T00:10:52.379Z,54.50
2023-09-23T00:13:22.203Z,54.84
2023-09-23T00:15:51.190Z,54.96
2023-09-23T00:18:18.940Z,54.90
2023-09-23T00:20:46.704Z,54.84
2023-09-23T00:23:14.583Z,54.90
2023-09-23T00:25:41.788Z,54.83
2023-09-23T00:28:12.204Z,54.91
2023-09-23T00:30:39.594Z,54.98
2023-09-23T00:33:09.044Z,55.28
2023-09-23T00:35:37.909Z,55.19
2023-09-23T00:38:08.680Z,55.19
2023-09-23T00:40:39.535Z,55.19
2023-09-23T00:43:14.566Z,55.11
2023-09-23T00:45:49.385Z,55.37
2023-09-23T00:48:23.147Z,55.37
2023-09-23T00:50:53.697Z,55.00
2023-09-23T00:53:23.645Z,55.30
2023-09-23T00:55:56.628Z,55.30
2023-09-23T00:58:26.372Z,55.46
2023-09-23T01:00:56.112Z,55.52
2023-09-23T01:03:25.346Z,55.37
2023-09-23T01:06:05.687Z,55.56
2023-09-23T01:08:34.648Z,55.34
2023-09-23T01:11:01.903Z,55.59
2023-09-23T01:13:31.498Z,55.51
2023-09-23T01:16:00.932Z,55.75
2023-09-23T01:18:30.061Z,55.54
2023-09-23T01:21:01.825Z,55.86
2023-09-23T01:23:29.197Z,55.78
2023-09-23T01:25:56.454Z,55.94
2023-09-23T01:28:24.041Z,55.74
2023-09-23T01:30:51.273Z,55.74
2023-09-23T01:33:18.623Z,56.04
2023-09-23T01:35:47.114Z,55.93
2023-09-23T01:38:16.886Z,56.02
2023-09-23T01:40:45.000Z,55.77
2023-09-23T01:43:13.058Z,56.03
2023-09-23T01:45:41.248Z,55.98
2023-09-23T01:48:09.516Z,55.63
2023-09-23T01:50:36.733Z,56.16
2023-09-23T01:53:04.543Z,56.11
2023-09-23T01:55:32.264Z,56.01
2023-09-23T01:57:59.734Z,56.27
2023-09-23T02:00:30.844Z,56.23
2023-09-23T02:02:59.040Z,56.21
2023-09-23T02:05:29.005Z,56.29
2023-09-23T02:07:56.744Z,56.39
2023-09-23T02:10:27.525Z,56.22
2023-09-23T02:12:56.630Z,56.10
2023-09-23T02:15:23.834Z,56.35
2023-09-23T02:17:51.524Z,56.43
2023-09-23T02:20:20.699Z,56.71
2023-09-23T02:22:55.181Z,56.88
2023-09-23T02:25:26.202Z,56.60
2023-09-23T02:27:56.359Z,56.92
2023-09-23T02:30:24.578Z,57.05
2023-09-23T02:32:51.939Z,57.14
2023-09-23T02:35:19.176Z,57.31
2023-09-23T02:37:47.840Z,57.01
2023-09-23T02:40:16.014Z,56.94
2023-09-23T02:42:45.854Z,57.06
2023-09-23T02:45:15.402Z,56.88
2023-09-23T02:47:45.556Z,57.25
2023-09-23T02:50:15.044Z,57.43
2023-09-23T02:52:46.227Z,57.32
2023-09-23T02:55:16.871Z,57.27
2023-09-23T02:57:51.948Z,57.38
2023-09-23T03:00:31.369Z,57.47
2023-09-23T03:03:00.177Z,57.68
2023-09-23T03:05:31.307Z,57.77
2023-09-23T03:08:01.422Z,57.62
2023-09-23T03:10:40.798Z,57.58
2023-09-23T03:13:09.159Z,57.54
2023-09-23T03:15:52.445Z,57.87
2023-09-23T03:18:29.766Z,57.64
2023-09-23T03:21:04.749Z,57.68
2023-09-23T03:23:31.871Z,57.80
2023-09-23T03:26:00.567Z,57.86
2023-09-23T03:28:27.833Z,57.80
2023-09-23T03:31:01.331Z,57.87
2023-09-23T03:33:28.618Z,57.80
2023-09-23T03:35:56.618Z,57.93
2023-09-23T03:38:24.128Z,58.20
2023-09-23T03:40:53.588Z,58.22
2023-09-23T03:43:22.608Z,58.14
2023-09-23T03:45:50.021Z,58.32
2023-09-23T03:48:17.203Z,58.12
2023-09-23T03:50:44.625Z,58.25
2023-09-23T03:53:13.099Z,58.16
2023-09-23T03:55:40.532Z,58.24
2023-09-23T03:58:07.902Z,58.27
2023-09-23T04:00:35.990Z,58.22
2023-09-23T04:03:03.283Z,58.33
2023-09-23T04:05:32.889Z,58.27
2023-09-23T04:08:00.153Z,58.43
2023-09-23T04:10:28.610Z,58.34
2023-09-23T04:12:56.746Z,58.42
2023-09-23T04:15:25.772Z,58.43
2023-09-23T04:17:53.544Z,58.46
2023-09-23T04:20:20.905Z,58.46
2023-09-23T04:22:48.154Z,58.43
2023-09-23T04:25:15.516Z,58.33
2023-09-23T04:27:42.691Z,58.39
2023-09-23T04:30:10.964Z,58.30
2023-09-23T04:32:40.525Z,58.46
2023-09-23T04:35:09.064Z,58.36
2023-09-23T04:37:39.916Z,58.41
2023-09-23T04:40:12.147Z,58.40
2023-09-23T04:42:44.181Z,58.46
2023-09-23T04:45:13.025Z,58.41
2023-09-23T04:47:41.475Z,58.54
2023-09-23T04:50:13.780Z,58.50
2023-09-23T04:52:42.534Z,58.32
2023-09-23T04:55:10.313Z,58.36
2023-09-23T04:57:37.674Z,58.19
2023-09-23T05:00:10.739Z,58.09
2023-09-23T05:02:40.943Z,58.15
2023-09-23T05:05:11.240Z,58.15
2023-09-23T05:07:39.266Z,57.90
2023-09-23T05:10:08.024Z,57.81
2023-09-23T05:12:35.487Z,57.72
2023-09-23T05:15:04.405Z,57.71
2023-09-23T05:17:32.705Z,57.75
2023-09-23T05:20:00.105Z,57.49
2023-09-23T05:22:27.306Z,57.70
2023-09-23T05:24:59.028Z,57.76
2023-09-23T05:27:26.623Z,57.75
2023-09-23T05:29:54.747Z,57.54
2023-09-23T05:32:22.075Z,57.52
2023-09-23T05:34:52.932Z,57.33
2023-09-23T05:37:20.543Z,57.24
2023-09-23T05:39:47.683Z,56.96
2023-09-23T05:42:24.414Z,56.63
2023-09-23T05:44:51.534Z,56.21
2023-09-23T05:47:18.660Z,56.07
2023-09-23T05:49:47.737Z,55.84
2023-09-23T05:52:16.213Z,55.77
2023-09-23T05:54:43.550Z,55.40
2023-09-23T05:57:10.955Z,54.98
2023-09-23T05:59:38.074Z,54.69
2023-09-23T06:02:09.956Z,54.46
2023-09-23T06:04:37.280Z,54.12
2023-09-23T06:07:05.978Z,53.71
2023-09-23T06:09:33.312Z,53.52
2023-09-23T06:12:00.486Z,52.67
2023-09-23T06:14:27.830Z,52.36
2023-09-23T06:16:55.220Z,52.10
2023-09-23T06:19:22.731Z,51.81
2023-09-23T06:21:50.123Z,51.69
2023-09-23T06:24:17.332Z,50.89
2023-09-23T06:26:44.490Z,50.76
2023-09-23T06:29:11.805Z,49.59
2023-09-23T06:31:38.933Z,49.07
2023-09-23T06:34:07.561Z,48.45
2023-09-23T06:36:35.111Z,47.56
2023-09-23T06:39:02.252Z,47.15
2023-09-23T06:41:29.423Z,46.93
2023-09-23T06:43:58.317Z,46.22
2023-09-23T06:46:25.577Z,45.94
2023-09-23T06:48:52.704Z,45.94
2023-09-23T06:51:19.800Z,45.75
2023-09-23T06:53:48.571Z,45.88
2023-09-23T06:56:16.287Z,44.83
2023-09-23T06:58:43.400Z,44.64
2023-09-23T07:01:10.509Z,44.55
2023-09-23T07:03:37.690Z,44.47
2023-09-23T07:06:04.946Z,43.97
2023-09-23T07:08:32.154Z,42.96
2023-09-23T07:10:59.355Z,42.39
2023-09-23T07:13:26.579Z,42.23
2023-09-23T07:15:53.728Z,41.29
2023-09-23T07:18:20.893Z,40.13
2023-09-23T07:20:48.041Z,39.15
2023-09-23T07:23:15.261Z,38.50
2023-09-23T07:25:43.679Z,38.07
2023-09-23T07:28:11.359Z,37.35
2023-09-23T07:30:39.514Z,37.36
2023-09-23T07:33:07.077Z,36.94
2023-09-23T07:35:34.801Z,37.63
2023-09-23T07:38:04.108Z,36.58
2023-09-23T07:40:32.187Z,36.98
2023-09-23T07:42:59.455Z,37.22
2023-09-23T07:45:26.966Z,36.89
2023-09-23T07:47:54.202Z,36.83
2023-09-23T07:50:22.147Z,37.53
2023-09-23T07:52:49.659Z,37.38
2023-09-23T07:55:17.063Z,37.34
2023-09-23T07:57:46.168Z,37.12
2023-09-23T08:00:13.650Z,37.20
2023-09-23T08:02:40.857Z,37.07
2023-09-23T08:05:08.467Z,37.14
2023-09-23T08:07:35.745Z,36.99
2023-09-23T08:10:05.171Z,36.72
2023-09-23T08:12:35.533Z,36.71
2023-09-23T08:15:03.130Z,36.73
2023-09-23T08:17:32.944Z,36.84
2023-09-23T08:20:00.791Z,35.89
2023-09-23T08:22:27.919Z,35.16
2023-09-23T08:24:55.075Z,35.19
2023-09-23T08:27:22.357Z,35.31
2023-09-23T08:29:51.043Z,34.84
2023-09-23T08:32:18.287Z,34.57
2023-09-23T08:34:45.757Z,34.83
2023-09-23T08:37:12.988Z,34.41
2023-09-23T08:39:40.339Z,34.61
2023-09-23T08:42:08.870Z,34.12
2023-09-23T08:44:36.546Z,33.91
2023-09-23T08:47:03.946Z,34.31
2023-09-23T08:49:31.948Z,33.87
2023-09-23T08:52:00.937Z,33.62
2023-09-23T08:54:30.306Z,33.55
2023-09-23T08:56:57.659Z,32.97
2023-09-23T08:59:28.118Z,33.21
2023-09-23T09:01:56.805Z,32.83
2023-09-23T09:04:25.561Z,32.78
2023-09-23T09:06:54.725Z,32.42
2023-09-23T09:09:22.086Z,32.20
2023-09-23T09:11:51.053Z,32.42
2023-09-23T09:14:18.964Z,31.95
2023-09-23T09:16:46.823Z,31.84
2023-09-23T09:19:14.204Z,32.26
2023-09-23T09:21:42.661Z,32.24
2023-09-23T09:24:12.585Z,31.52
2023-09-23T09:26:39.687Z,31.54
2023-09-23T09:29:07.007Z,31.61
2023-09-23T09:31:36.209Z,31.52
2023-09-23T09:34:12.714Z,30.94
2023-09-23T09:36:40.444Z,31.63
2023-09-23T09:39:09.930Z,31.69
2023-09-23T09:41:48.245Z,31.33
2023-09-23T09:44:22.496Z,31.36
2023-09-23T09:46:51.714Z,31.08
2023-09-23T09:49:19.089Z,31.24
2023-09-23T09:51:50.365Z,30.94
2023-09-23T09:54:26.781Z,30.54
2023-09-23T09:56:57.162Z,30.47
2023-09-23T09:59:27.881Z,30.44
2023-09-23T10:01:59.216Z,30.06
2023-09-23T10:04:35.114Z,30.15
2023-09-23T10:07:07.342Z,30.09
2023-09-23T10:09:37.651Z,30.52
2023-09-23T10:12:05.625Z,30.22
2023-09-23T10:14:33.029Z,29.85
2023-09-23T10:17:03.131Z,29.83
2023-09-23T10:19:34.520Z,29.53
2023-09-23T10:22:21.903Z,29.29
2023-09-23T10:25:02.808Z,29.35
2023-09-23T10:27:33.739Z,29.39
2023-09-23T10:30:03.542Z,28.76
2023-09-23T10:32:32.398Z,29.10
2023-09-23T10:35:00.400Z,28.66
2023-09-23T10:37:30.660Z,28.68
2023-09-23T10:40:18.799Z,29.08
2023-09-23T10:42:50.547Z,29.20
2023-09-23T10:45:23.742Z,28.76
2023-09-23T10:47:51.785Z,28.45
2023-09-23T10:50:18.939Z,28.67
2023-09-23T10:52:46.569Z,28.67
2023-09-23T10:55:14.060Z,28.67
2023-09-23T10:57:41.375Z,28.33
2023-09-23T11:00:21.752Z,27.99
2023-09-23T11:02:56.251Z,28.35
2023-09-23T11:05:24.462Z,28.41
2023-09-23T11:07:55.722Z,28.23
2023-09-23T11:10:24.315Z,28.26
2023-09-23T11:12:51.480Z,28.22
2023-09-23T11:15:19.033Z,27.94
2023-09-23T11:17:46.458Z,28.32
2023-09-23T11:20:14.750Z,27.97
2023-09-23T11:22:45.327Z,27.84
2023-09-23T11:25:13.539Z,28.26
2023-09-23T11:27:41.443Z,28.65
2023-09-23T11:30:09.344Z,28.15
2023-09-23T11:32:36.650Z,28.29
2023-09-23T11:35:04.182Z,27.69
2023-09-23T11:37:31.516Z,27.81
2023-09-23T11:39:58.812Z,27.74
2023-09-23T11:42:26.025Z,27.43
2023-09-23T11:44:54.008Z,27.46
2023-09-23T11:47:22.682Z,27.18
2023-09-23T11:49:50.282Z,27.41
2023-09-23T11:52:17.844Z,27.95
2023-09-23T11:54:45.558Z,27.47
2023-09-23T11:57:13.862Z,27.23
2023-09-23T11:59:41.553Z,27.24
2023-09-23T12:02:10.106Z,26.97
2023-09-23T12:04:37.785Z,27.17
2023-09-23T12:07:06.152Z,27.24
2023-09-23T12:09:36.946Z,26.91
2023-09-23T12:12:04.499Z,26.85
2023-09-23T12:14:31.764Z,26.35
2023-09-23T12:16:59.093Z,27.06
2023-09-23T12:19:26.176Z,26.64
2023-09-23T12:21:53.290Z,26.69
2023-09-23T12:24:20.329Z,26.74
2023-09-23T12:26:47.527Z,27.14
2023-09-23T12:29:14.729Z,27.29
2023-09-23T12:31:41.849Z,27.02
2023-09-23T12:34:08.967Z,27.40
2023-09-23T12:36:36.078Z,27.67
2023-09-23T12:39:03.646Z,27.46
2023-09-23T12:41:30.770Z,27.21
2023-09-23T12:43:58.480Z,27.14
2023-09-23T12:46:25.708Z,27.48
2023-09-23T12:48:52.816Z,27.15
2023-09-23T12:51:20.934Z,27.22
2023-09-23T12:53:49.371Z,27.18
2023-09-23T12:56:18.718Z,27.00
2023-09-23T12:58:46.406Z,27.14
2023-09-23T13:01:14.212Z,27.17
2023-09-23T13:03:41.879Z,27.00
2023-09-23T13:06:09.189Z,26.65
2023-09-23T13:08:36.371Z,27.08
2023-09-23T13:11:03.752Z,26.55
2023-09-23T13:13:31.113Z,26.78
2023-09-23T13:15:58.298Z,26.95
2023-09-23T13:18:25.593Z,26.91
2023-09-23T13:20:52.837Z,26.96
2023-09-23T13:23:19.931Z,27.05
2023-09-23T13:25:47.563Z,26.86
2023-09-23T13:28:15.202Z,26.84
2023-09-23T13:30:42.340Z,27.25
2023-09-23T13:33:10.400Z,27.14
2023-09-23T13:35:38.020Z,27.11
2023-09-23T13:38:08.139Z,27.35
2023-09-23T13:40:37.064Z,27.57
2023-09-23T13:43:04.424Z,27.34
2023-09-23T13:45:31.637Z,27.63
2023-09-23T13:47:59.161Z,27.71
2023-09-23T13:50:27.348Z,28.06
2023-09-23T13:52:54.585Z,27.72
2023-09-23T13:55:21.680Z,27.77
2023-09-23T13:57:49.000Z,28.06
2023-09-23T14:00:16.269Z,27.93
2023-09-23T14:02:43.682Z,28.33
2023-09-23T14:05:12.308Z,28.26
2023-09-23T14:07:39.890Z,28.29
2023-09-23T14:10:19.279Z,28.70
2023-09-23T14:12:49.348Z,28.79
2023-09-23T14:15:17.245Z,28.49
2023-09-23T14:17:44.611Z,28.78
2023-09-23T14:20:14.029Z,29.03
2023-09-23T14:22:46.707Z,28.81
2023-09-23T14:25:15.499Z,28.56
2023-09-23T14:27:44.248Z,29.00
2023-09-23T14:30:12.267Z,28.73
2023-09-23T14:32:39.966Z,28.90
2023-09-23T14:35:07.759Z,29.09
2023-09-23T14:37:35.468Z,29.03
2023-09-23T14:40:03.450Z,28.71
2023-09-23T14:42:32.207Z,29.05
2023-09-23T14:44:59.422Z,28.93
2023-09-23T14:47:27.561Z,28.92
2023-09-23T14:49:54.840Z,28.94
2023-09-23T14:52:22.270Z,28.70
2023-09-23T14:54:49.449Z,28.54
2023-09-23T14:57:16.981Z,28.49
2023-09-23T14:59:45.409Z,29.20
2023-09-23T15:02:12.743Z,29.30
2023-09-23T15:04:39.950Z,29.72
2023-09-23T15:07:07.061Z,30.23
2023-09-23T15:09:34.244Z,30.70
2023-09-23T15:12:01.397Z,31.24
2023-09-23T15:14:28.720Z,31.31
2023-09-23T15:16:56.034Z,31.66
2023-09-23T15:19:23.360Z,32.07
2023-09-23T15:21:50.419Z,32.27
2023-09-23T15:24:18.251Z,32.15
2023-09-23T15:26:46.178Z,32.39
2023-09-23T15:29:13.421Z,32.34
2023-09-23T15:31:40.481Z,32.45
2023-09-23T15:34:08.153Z,32.73
2023-09-23T15:36:36.721Z,33.41
2023-09-23T15:39:05.502Z,33.06
2023-09-23T15:41:32.904Z,33.88
2023-09-23T15:44:00.152Z,34.06
2023-09-23T15:46:27.373Z,34.50
2023-09-23T15:48:54.577Z,34.58
2023-09-23T15:51:21.809Z,34.59
2023-09-23T15:53:49.142Z,34.68
2023-09-23T15:56:16.576Z,35.09
2023-09-23T15:58:45.302Z,35.17
2023-09-23T16:01:12.916Z,35.21
2023-09-23T16:03:40.359Z,35.30
2023-09-23T16:06:07.680Z,35.85
2023-09-23T16:08:34.980Z,35.72
2023-09-23T16:11:05.546Z,36.10
2023-09-23T16:13:33.601Z,36.51
2023-09-23T16:16:00.834Z,36.51
2023-09-23T16:18:28.108Z,36.92
2023-09-23T16:20:55.364Z,36.76
2023-09-23T16:23:22.592Z,37.03
2023-09-23T16:25:50.460Z,37.04
2023-09-23T16:28:17.692Z,37.61
2023-09-23T16:30:46.355Z,37.15
2023-09-23T16:33:13.948Z,37.46
2023-09-23T16:35:41.374Z,37.22
2023-09-23T16:38:08.627Z,37.97
2023-09-23T16:40:37.277Z,37.61
2023-09-23T16:43:05.055Z,38.00
2023-09-23T16:45:32.423Z,37.94
2023-09-23T16:47:59.654Z,38.01
2023-09-23T16:50:27.284Z,38.57
2023-09-23T16:52:54.533Z,38.56
2023-09-23T16:55:21.952Z,38.40
2023-09-23T16:57:49.283Z,38.98
2023-09-23T17:00:18.284Z,38.61
2023-09-23T17:02:46.037Z,39.15
2023-09-23T17:05:14.138Z,39.51
2023-09-23T17:07:41.342Z,39.38
2023-09-23T17:10:09.691Z,39.64
2023-09-23T17:12:37.046Z,39.70
2023-09-23T17:15:05.282Z,39.79
2023-09-23T17:17:33.211Z,39.51
2023-09-23T17:20:00.963Z,39.70
2023-09-23T17:22:28.687Z,39.70
2023-09-23T17:24:55.842Z,40.11
2023-09-23T17:27:23.059Z,40.05
2023-09-23T17:29:50.223Z,40.15
2023-09-23T17:32:17.402Z,40.15
2023-09-23T17:34:44.612Z,40.16
2023-09-23T17:37:14.455Z,40.11
2023-09-23T17:39:41.607Z,40.11
2023-09-23T17:42:08.812Z,40.10
2023-09-23T17:44:38.041Z,40.39
2023-09-23T17:47:05.971Z,40.09
2023-09-23T17:49:33.099Z,40.57
2023-09-23T17:52:00.185Z,40.69
2023-09-23T17:54:27.435Z,40.46
2023-09-23T17:56:54.577Z,40.53
2023-09-23T17:59:22.349Z,40.74
2023-09-23T18:01:49.707Z,40.60
2023-09-23T18:04:17.331Z,40.48
2023-09-23T18:06:44.733Z,40.52
2023-09-23T18:09:11.945Z,40.78
2023-09-23T18:11:39.211Z,40.74
2023-09-23T18:14:06.533Z,40.96
2023-09-23T18:16:33.835Z,40.93
2023-09-23T18:19:00.999Z,41.00
2023-09-23T18:21:28.222Z,41.13
2023-09-23T18:23:55.440Z,41.31
2023-09-23T18:26:22.690Z,40.76
2023-09-23T18:28:49.887Z,41.28
2023-09-23T18:31:17.112Z,41.29
2023-09-23T18:33:44.498Z,41.54
2023-09-23T18:36:12.378Z,41.55
2023-09-23T18:38:39.738Z,41.16
2023-09-23T18:41:07.252Z,41.63
2023-09-23T18:43:34.368Z,41.42
2023-09-23T18:46:01.581Z,41.44
2023-09-23T18:48:31.756Z,41.24
2023-09-23T18:51:00.371Z,41.38
2023-09-23T18:53:28.056Z,41.20
2023-09-23T18:55:55.826Z,41.23
2023-09-23T18:58:23.133Z,41.33
2023-09-23T19:00:50.388Z,41.20
2023-09-23T19:03:18.749Z,41.51
2023-09-23T19:05:47.565Z,41.38
2023-09-23T19:08:15.535Z,41.31
2023-09-23T19:10:42.947Z,41.53
2023-09-23T19:13:10.315Z,41.72
2023-09-23T19:15:37.629Z,41.40
2023-09-23T19:18:05.105Z,41.37
2023-09-23T19:20:32.976Z,41.48
2023-09-23T19:23:00.232Z,41.22
2023-09-23T19:25:27.333Z,41.95
2023-09-23T19:27:54.458Z,41.45
2023-09-23T19:30:21.749Z,41.55
2023-09-23T19:32:50.985Z,41.45
2023-09-23T19:35:18.774Z,41.73
2023-09-23T19:37:46.346Z,41.62
2023-09-23T19:40:13.604Z,41.61
2023-09-23T19:42:40.717Z,41.42
2023-09-23T19:45:09.821Z,41.54
2023-09-23T19:47:38.281Z,41.56
2023-09-23T19:50:07.549Z,41.77
2023-09-23T19:52:35.464Z,41.65
2023-09-23T19:55:03.062Z,41.72
2023-09-23T19:57:32.450Z,41.76
2023-09-23T20:00:00.615Z,42.03
2023-09-23T20:02:28.248Z,42.03
2023-09-23T20:04:56.171Z,41.82
2023-09-23T20:07:24.904Z,42.21
2023-09-23T20:09:52.090Z,41.98
2023-09-23T20:12:19.188Z,42.02
2023-09-23T20:14:46.451Z,42.10
2023-09-23T20:17:13.654Z,42.19
2023-09-23T20:19:40.813Z,42.09
2023-09-23T20:22:07.950Z,41.94
2023-09-23T20:24:35.196Z,42.22
2023-09-23T20:27:05.029Z,42.45
2023-09-23T20:29:32.161Z,42.00
2023-09-23T20:31:59.256Z,41.96
2023-09-23T20:34:26.398Z,41.98
2023-09-23T20:36:57.260Z,41.69
2023-09-23T20:39:24.840Z,41.03
2023-09-23T20:41:53.849Z,40.38
2023-09-23T20:44:21.231Z,40.34
2023-09-23T20:46:48.382Z,39.96
2023-09-23T20:49:15.569Z,39.64
2023-09-23T20:51:42.798Z,39.17
2023-09-23T20:54:10.037Z,39.44
2023-09-23T20:56:37.164Z,38.96
2023-09-23T20:59:04.305Z,38.72
2023-09-23T21:01:31.473Z,38.55
2023-09-23T21:03:58.782Z,38.63
2023-09-23T21:06:26.039Z,38.43
2023-09-23T21:08:53.300Z,38.31
2023-09-23T21:11:20.595Z,38.52
2023-09-23T21:13:48.137Z,38.58
2023-09-23T21:16:16.256Z,38.59
2023-09-23T21:18:43.645Z,38.67
2023-09-23T21:21:10.942Z,38.51
2023-09-23T21:23:39.257Z,38.14
2023-09-23T21:26:07.383Z,38.06
2023-09-23T21:28:34.518Z,37.73
2023-09-23T21:31:01.582Z,38.15
2023-09-23T21:33:28.906Z,37.95
2023-09-23T21:35:56.329Z,38.16
2023-09-23T21:38:23.583Z,38.09
2023-09-23T21:40:50.707Z,37.87
2023-09-23T21:43:18.007Z,37.41
2023-09-23T21:45:45.342Z,37.48
2023-09-23T21:48:12.601Z,37.20
2023-09-23T21:50:39.848Z,37.68
2023-09-23T21:53:07.003Z,37.87
2023-09-23T21:55:34.127Z,37.79
2023-09-23T21:58:01.251Z,38.03
2023-09-23T22:00:29.230Z,38.17
2023-09-23T22:02:58.521Z,37.67
2023-09-23T22:05:27.337Z,37.62
2023-09-23T22:08:01.986Z,37.66
2023-09-23T22:10:29.643Z,37.87
2023-09-23T22:12:58.278Z,37.41
2023-09-23T22:15:26.971Z,37.42
2023-09-23T22:17:54.944Z,37.12
2023-09-23T22:20:26.137Z,37.08
2023-09-23T22:22:54.887Z,37.03
2023-09-23T22:25:23.471Z,36.92
2023-09-23T22:27:55.347Z,36.89
2023-09-23T22:30:27.394Z,37.19
2023-09-23T22:32:58.994Z,37.49
2023-09-23T22:35:31.089Z,37.14
2023-09-23T22:38:00.507Z,37.83
2023-09-23T22:40:27.901Z,37.70
2023-09-23T22:42:59.855Z,37.38
2023-09-23T22:45:38.516Z,37.34
2023-09-23T22:48:08.780Z,37.49
2023-09-23T22:50:36.543Z,37.77
2023-09-23T22:53:06.514Z,37.68
2023-09-23T22:55:34.137Z,37.09
2023-09-23T22:58:01.262Z,37.11
2023-09-23T23:00:28.785Z,37.33
2023-09-23T23:02:57.881Z,37.32
2023-09-23T23:05:28.211Z,37.01
2023-09-23T23:07:57.471Z,37.15
2023-09-23T23:10:25.003Z,37.51
2023-09-23T23:12:52.272Z,37.58
2023-09-23T23:15:19.712Z,37.48
2023-09-23T23:17:48.486Z,37.37
2023-09-23T23:20:24.284Z,37.71
2023-09-23T23:22:56.329Z,37.82
2023-09-23T23:25:25.174Z,37.59
2023-09-23T23:27:53.270Z,37.92
2023-09-23T23:30:21.922Z,38.27
2023-09-23T23:32:49.957Z,38.47
2023-09-23T23:35:24.386Z,38.59
2023-09-23T23:37:52.400Z,38.80
2023-09-23T23:40:24.616Z,38.81
2023-09-23T23:42:52.228Z,38.96
2023-09-23T23:45:22.972Z,39.09
2023-09-23T23:47:56.721Z,38.99
2023-09-23T23:50:25.223Z,39.24
2023-09-23T23:52:52.989Z,39.25
2023-09-23T23:55:20.374Z,39.64
2023-09-23T23:57:48.525Z,39.56
